createdAt,value
2022-11-04T00:00:34.742Z,17.3
2022-11-04T00:05:34.696Z,19.6
2022-11-04T00:10:34.887Z,17.4
2022-11-04T00:15:34.748Z,15.5
2022-11-04T00:20:34.641Z,14.1
2022-11-04T00:25:34.921Z,12.7
2022-11-04T00:30:34.589Z,12.4
2022-11-04T00:35:34.650Z,10.6
2022-11-04T00:40:34.769Z,10.9
2022-11-04T00:45:35.971Z,11.8
2022-11-04T00:50:34.666Z,11.7
2022-11-04T00:55:34.645Z,9.5
2022-11-04T01:00:34.742Z,11.3
2022-11-04T01:05:34.779Z,11.1
2022-11-04T01:10:34.892Z,10.3
2022-11-04T01:15:34.565Z,11.2
2022-11-04T01:20:34.639Z,11.1
2022-11-04T01:25:35.036Z,11.0
2022-11-04T01:30:34.655Z,10.7
2022-11-04T01:35:34.770Z,10.2
2022-11-04T01:40:34.985Z,10.4
2022-11-04T01:45:34.520Z,9.1
2022-11-04T01:50:34.489Z,10.5
2022-11-04T01:55:34.602Z,10.3
2022-11-04T02:00:34.596Z,9.6
2022-11-04T02:05:34.556Z,9.8
2022-11-04T02:10:34.580Z,11.0
2022-11-04T02:15:34.448Z,11.3
2022-11-04T02:20:34.393Z,10.8
2022-11-04T02:25:34.593Z,8.7
2022-11-04T02:30:34.424Z,8.9
2022-11-04T02:35:34.456Z,9.8
2022-11-04T02:40:34.602Z,8.6
2022-11-04T02:45:34.374Z,9.1
2022-11-04T02:50:34.432Z,9.8
2022-11-04T02:55:34.622Z,9.5
2022-11-04T03:00:34.375Z,9.3
2022-11-04T03:05:34.394Z,9.9
2022-11-04T03:10:34.663Z,9.5
2022-11-04T03:15:34.359Z,9.7
2022-11-04T03:20:34.357Z,8.8
2022-11-04T03:25:34.749Z,9.2
2022-11-04T03:30:34.350Z,8.7
2022-11-04T03:35:34.365Z,10.0
2022-11-04T03:40:34.440Z,9.6
2022-11-04T03:45:34.363Z,9.6
2022-11-04T03:50:34.304Z,9.8
2022-11-04T03:55:34.594Z,8.6
2022-11-04T04:00:34.288Z,8.7
2022-11-04T04:05:34.273Z,9.1
2022-11-04T04:10:34.540Z,10.7
2022-11-04T04:15:34.238Z,10.0
2022-11-04T04:20:34.301Z,10.1
2022-11-04T04:25:34.467Z,10.0
2022-11-04T04:30:34.285Z,9.4
2022-11-04T04:35:34.196Z,9.3
2022-11-04T04:40:34.588Z,10.0
2022-11-04T04:45:34.752Z,10.2
2022-11-04T04:50:34.277Z,9.2
2022-11-04T04:55:39.010Z,10.0
2022-11-04T05:00:34.218Z,9.2
2022-11-04T05:05:34.184Z,8.6
2022-11-04T05:10:34.353Z,8.5
2022-11-04T05:15:34.118Z,9.5
2022-11-04T05:20:34.328Z,7.7
2022-11-04T05:25:34.328Z,8.7
2022-11-04T05:30:34.108Z,8.1
2022-11-04T05:35:34.152Z,7.9
2022-11-04T05:40:34.394Z,7.3
2022-11-04T05:45:34.162Z,8.2
2022-11-04T05:50:34.125Z,7.2
2022-11-04T05:55:34.326Z,7.6
2022-11-04T06:00:34.052Z,7.8
2022-11-04T06:05:34.051Z,8.8
2022-11-04T06:10:34.233Z,9.6
2022-11-04T06:15:34.067Z,9.4
2022-11-04T06:20:34.008Z,9.8
2022-11-04T06:25:34.221Z,10.3
2022-11-04T06:30:33.994Z,10.1
2022-11-04T06:35:34.019Z,10.7
2022-11-04T06:40:34.181Z,10.1
2022-11-04T06:45:34.124Z,10.5
2022-11-04T06:50:34.153Z,9.4
2022-11-04T06:55:34.273Z,9.5
2022-11-04T07:00:33.931Z,8.0
2022-11-04T07:05:33.910Z,6.6
2022-11-04T07:10:34.208Z,7.7
2022-11-04T07:15:33.944Z,8.2
2022-11-04T07:20:33.883Z,7.5
2022-11-04T07:25:34.059Z,7.9
2022-11-04T07:30:33.949Z,7.6
2022-11-04T07:35:33.848Z,7.5
2022-11-04T07:40:34.077Z,8.6
2022-11-04T07:45:33.908Z,10.0
2022-11-04T07:50:34.002Z,7.9
2022-11-04T07:55:36.790Z,7.8
2022-11-04T08:00:34.015Z,8.3
2022-11-04T08:05:33.983Z,8.1
2022-11-04T08:10:34.067Z,9.0
2022-11-04T08:15:34.012Z,7.9
2022-11-04T08:20:34.117Z,8.4
2022-11-04T08:25:33.853Z,8.4
2022-11-04T08:30:33.798Z,8.4
2022-11-04T08:35:38.320Z,8.9
2022-11-04T08:40:34.035Z,9.1
2022-11-04T08:45:33.946Z,9.4
2022-11-04T08:50:33.775Z,9.9
2022-11-04T08:55:33.875Z,9.9
2022-11-04T09:00:33.820Z,10.1
2022-11-04T09:05:33.720Z,10.4
2022-11-04T09:10:34.090Z,8.1
2022-11-04T09:15:34.231Z,9.7
2022-11-04T09:20:33.737Z,9.4
2022-11-04T09:25:34.176Z,9.1
2022-11-04T09:30:33.749Z,9.6
2022-11-04T09:35:33.759Z,10.3
2022-11-04T09:40:33.883Z,29.2
2022-11-04T09:45:33.666Z,33.0
2022-11-04T09:50:33.662Z,12.7
2022-11-04T09:55:33.888Z,8.6
2022-11-04T10:00:33.882Z,8.4
2022-11-04T10:05:33.786Z,8.7
2022-11-04T10:10:34.048Z,40.1
2022-11-04T10:15:33.726Z,28.0
2022-11-04T10:20:33.729Z,29.7
2022-11-04T10:25:33.968Z,12.7
2022-11-04T10:30:33.631Z,9.4
2022-11-04T10:35:33.628Z,9.8
2022-11-04T10:40:33.696Z,8.5
2022-11-04T10:45:33.608Z,11.9
2022-11-04T10:50:33.680Z,17.9
2022-11-04T10:55:34.055Z,12.6
2022-11-04T11:00:33.702Z,12.1
2022-11-04T11:05:33.597Z,18.9
2022-11-04T11:10:33.741Z,8.1
2022-11-04T11:30:33.633Z,15.9
2022-11-04T11:35:33.500Z,12.9
2022-11-04T11:40:33.503Z,9.3
2022-11-04T11:45:33.518Z,10.4
2022-11-04T11:50:33.460Z,14.6
2022-11-04T11:55:33.653Z,19.2
2022-11-04T12:00:36.684Z,21.2
2022-11-04T12:10:49.844Z,20.5
2022-11-04T12:15:33.572Z,16.2
2022-11-04T12:20:33.430Z,11.7
2022-11-04T12:25:33.767Z,9.1
2022-11-04T12:30:38.140Z,8.4
2022-11-04T12:35:33.439Z,7.3
2022-11-04T12:40:33.558Z,9.1
2022-11-04T12:45:33.366Z,9.4
2022-11-04T12:50:33.392Z,11.0
2022-11-04T12:55:33.591Z,13.1
2022-11-04T13:05:33.811Z,7.6
2022-11-04T13:10:33.322Z,7.4
2022-11-04T13:15:33.628Z,6.4
2022-11-04T13:20:33.764Z,7.4
2022-11-04T13:25:33.444Z,8.2
2022-11-04T13:30:33.826Z,8.3
2022-11-04T13:35:33.785Z,8.6
2022-11-04T13:40:33.637Z,8.5
2022-11-04T13:45:33.955Z,15.3
2022-11-04T13:50:33.584Z,11.6
2022-11-04T13:55:33.323Z,9.5
2022-11-04T14:00:33.291Z,8.8
2022-11-04T14:05:33.493Z,11.3
2022-11-04T14:10:33.677Z,25.6
2022-11-04T14:15:33.695Z,40.6
2022-11-04T14:20:34.270Z,38.8
2022-11-04T14:25:34.024Z,147.6
2022-11-04T14:30:34.320Z,175.4
2022-11-04T14:35:34.272Z,160.7
2022-11-04T14:40:33.339Z,70.4
2022-11-04T14:45:33.429Z,26.6
2022-11-04T14:50:33.460Z,17.2
2022-11-04T14:55:33.305Z,26.5
2022-11-04T15:00:33.292Z,36.9
2022-11-04T15:05:33.416Z,32.5
2022-11-04T15:10:33.208Z,19.7
2022-11-04T15:15:33.300Z,22.0
2022-11-04T15:20:33.962Z,21.5
2022-11-04T15:25:33.179Z,84.5
2022-11-04T15:30:33.180Z,50.3
2022-11-04T15:35:33.363Z,29.1
2022-11-04T15:40:33.232Z,29.3
2022-11-04T15:45:33.137Z,36.1
2022-11-04T15:50:33.321Z,26.0
2022-11-04T15:55:33.238Z,41.7
2022-11-04T16:00:34.155Z,36.2
2022-11-04T16:05:34.043Z,61.9
2022-11-04T16:10:34.087Z,47.1
2022-11-04T16:15:33.994Z,43.8
2022-11-04T16:20:34.095Z,57.7
2022-11-04T16:25:33.977Z,116.1
2022-11-04T16:30:33.869Z,92.8
2022-11-04T16:35:33.098Z,60.6
2022-11-04T16:40:33.177Z,42.8
2022-11-04T16:45:33.236Z,47.1
2022-11-04T16:50:33.149Z,33.0
2022-11-04T16:55:33.216Z,30.7
2022-11-04T17:00:33.211Z,33.7
2022-11-04T17:05:33.026Z,32.2
2022-11-04T17:10:32.973Z,28.6
2022-11-04T17:15:33.139Z,27.8
2022-11-04T17:20:32.961Z,23.5
2022-11-04T17:25:33.100Z,23.4
2022-11-04T17:30:33.861Z,22.8
2022-11-04T17:35:32.989Z,25.3
2022-11-04T17:40:33.346Z,22.6
2022-11-04T17:45:33.381Z,21.4
2022-11-04T17:50:32.951Z,20.4
2022-11-04T17:55:33.069Z,20.8
2022-11-04T18:00:33.488Z,29.4
2022-11-04T18:05:33.449Z,20.9
2022-11-04T18:10:33.128Z,17.7
2022-11-04T18:15:33.435Z,27.0
2022-11-04T18:20:33.039Z,50.9
2022-11-04T18:25:33.209Z,25.2
2022-11-04T18:30:37.555Z,30.1
2022-11-04T18:35:32.799Z,29.8
2022-11-04T18:40:32.895Z,37.3
2022-11-04T18:45:32.906Z,27.9
2022-11-04T18:50:32.887Z,22.6
2022-11-04T18:55:32.812Z,22.4
2022-11-04T19:00:32.899Z,22.5
2022-11-04T19:05:32.973Z,21.9
2022-11-04T19:10:35.985Z,21.3
2022-11-04T19:15:32.872Z,24.1
2022-11-04T19:20:32.894Z,49.4
2022-11-04T19:25:32.969Z,26.2
2022-11-04T19:30:32.710Z,26.7
2022-11-04T19:35:32.745Z,34.8
2022-11-04T19:40:32.711Z,49.5
2022-11-04T19:45:32.897Z,49.6
2022-11-04T19:50:32.694Z,41.8
2022-11-04T19:55:32.844Z,46.3
2022-11-04T20:00:33.349Z,27.9
2022-11-04T20:05:32.812Z,25.9
2022-11-04T20:10:33.844Z,26.1
2022-11-04T20:15:32.887Z,26.9
2022-11-04T20:20:32.874Z,28.7
2022-11-04T20:25:32.677Z,28.2
2022-11-04T20:30:33.037Z,27.2
2022-11-04T20:35:32.698Z,27.1
2022-11-04T20:40:32.972Z,26.3
2022-11-04T20:45:32.636Z,28.5
2022-11-04T20:55:32.652Z,28.7
2022-11-04T21:00:32.590Z,30.1
2022-11-04T21:05:32.785Z,33.3
2022-11-04T21:10:32.614Z,31.2
2022-11-04T21:15:32.711Z,32.5
2022-11-04T21:20:32.746Z,34.9
2022-11-04T21:25:32.567Z,36.0
2022-11-04T21:30:33.326Z,37.9
2022-11-04T21:35:32.788Z,38.5
2022-11-04T21:40:32.585Z,40.7
2022-11-04T21:45:32.559Z,32.2
2022-11-04T21:50:32.711Z,29.5
2022-11-04T21:55:32.481Z,30.2
2022-11-04T22:00:32.605Z,28.8
2022-11-04T22:05:32.929Z,27.2
2022-11-04T22:10:32.637Z,28.3
2022-11-04T22:15:33.705Z,29.7
2022-11-04T22:20:32.416Z,31.2
2022-11-04T22:25:32.467Z,30.5
2022-11-04T22:30:32.513Z,30.0
2022-11-04T22:35:32.702Z,31.2
2022-11-04T22:40:32.537Z,31.4
2022-11-04T22:45:32.628Z,30.5
2022-11-04T22:50:33.055Z,32.2
2022-11-04T22:55:32.482Z,31.6
2022-11-04T23:00:32.416Z,31.7
2022-11-04T23:05:32.550Z,31.5
2022-11-04T23:10:38.075Z,31.8
2022-11-04T23:15:32.348Z,31.8
2022-11-04T23:20:32.386Z,34.5
2022-11-04T23:25:32.410Z,35.0
2022-11-04T23:30:32.388Z,32.7
2022-11-04T23:35:32.550Z,35.3
2022-11-04T23:40:32.337Z,51.3
2022-11-04T23:45:32.436Z,45.5
2022-11-04T23:50:32.591Z,53.8
2022-11-04T23:55:32.390Z,40.5
